createdAt,value
2024-02-13T00:01:00.282Z,73.50
2024-02-13T00:03:28.508Z,72.96
2024-02-13T00:05:57.177Z,73.29
2024-02-13T00:08:40.292Z,74.01
2024-02-13T00:11:15.269Z,73.93
2024-02-13T00:13:44.462Z,73.70
2024-02-13T00:16:12.694Z,74.39
2024-02-13T00:18:41.020Z,74.07
2024-02-13T00:21:09.327Z,74.03
2024-02-13T00:23:38.258Z,74.16
2024-02-13T00:26:10.546Z,74.01
2024-02-13T00:28:40.618Z,74.36
2024-02-13T00:31:08.963Z,73.94
2024-02-13T00:33:39.588Z,73.98
2024-02-13T00:36:08.747Z,74.48
2024-02-13T00:38:36.851Z,73.79
2024-02-13T00:41:06.282Z,74.11
2024-02-13T00:43:36.367Z,73.92
2024-02-13T00:46:05.959Z,73.67
2024-02-13T00:48:34.058Z,73.33
2024-02-13T00:51:02.216Z,73.81
2024-02-13T00:53:30.308Z,73.20
2024-02-13T00:56:02.344Z,72.91
2024-02-13T00:58:30.431Z,73.15
2024-02-13T01:00:59.748Z,73.14
2024-02-13T01:03:30.718Z,73.28
2024-02-13T01:05:58.829Z,73.12
2024-02-13T01:08:26.779Z,72.82
2024-02-13T01:10:54.849Z,73.10
2024-02-13T01:13:22.951Z,73.43
2024-02-13T01:15:53.600Z,73.67
2024-02-13T01:18:21.623Z,73.31
2024-02-13T01:20:51.054Z,73.31
2024-02-13T01:23:19.137Z,73.34
2024-02-13T01:25:47.578Z,73.49
2024-02-13T01:28:15.517Z,73.06
2024-02-13T01:30:43.579Z,73.18
2024-02-13T01:33:11.709Z,73.16
2024-02-13T01:35:43.435Z,72.84
2024-02-13T01:38:12.838Z,73.41
2024-02-13T01:40:40.810Z,73.03
2024-02-13T01:43:10.470Z,73.59
2024-02-13T01:45:38.378Z,73.09
2024-02-13T01:48:12.209Z,73.30
2024-02-13T01:50:40.420Z,73.74
2024-02-13T01:53:08.443Z,73.10
2024-02-13T01:55:38.178Z,73.18
2024-02-13T01:58:07.847Z,72.73
2024-02-13T02:00:35.728Z,72.52
2024-02-13T02:03:05.185Z,72.67
2024-02-13T02:05:34.072Z,72.66
2024-02-13T02:08:02.339Z,72.64
2024-02-13T02:10:30.326Z,72.66
2024-02-13T02:13:00.136Z,73.50
2024-02-13T02:15:29.410Z,73.24
2024-02-13T02:17:57.614Z,72.87
2024-02-13T02:20:25.692Z,73.00
2024-02-13T02:22:53.886Z,72.64
2024-02-13T02:25:24.042Z,73.02
2024-02-13T02:27:52.422Z,72.42
2024-02-13T02:30:20.858Z,72.97
2024-02-13T02:32:50.945Z,72.97
2024-02-13T02:35:19.127Z,72.39
2024-02-13T02:37:49.735Z,73.21
2024-02-13T02:40:20.467Z,72.92
2024-02-13T02:42:52.953Z,73.11
2024-02-13T02:45:20.957Z,73.05
2024-02-13T02:47:49.055Z,73.21
2024-02-13T02:50:17.479Z,73.38
2024-02-13T02:52:45.581Z,73.27
2024-02-13T02:55:13.611Z,73.65
2024-02-13T02:57:41.470Z,74.06
2024-02-13T03:00:13.906Z,74.25
2024-02-13T03:02:42.844Z,74.23
2024-02-13T03:05:11.585Z,74.79
2024-02-13T03:07:39.652Z,75.11
2024-02-13T03:10:11.244Z,74.99
2024-02-13T03:12:39.277Z,74.76
2024-02-13T03:15:08.185Z,75.09
2024-02-13T03:17:39.648Z,75.48
2024-02-13T03:20:11.706Z,76.87
2024-02-13T03:22:40.416Z,76.36
2024-02-13T03:25:09.384Z,75.63
2024-02-13T03:27:37.295Z,76.26
2024-02-13T03:30:06.232Z,76.22
2024-02-13T03:32:34.318Z,75.68
2024-02-13T03:35:03.712Z,75.73
2024-02-13T03:37:31.837Z,75.81
2024-02-13T03:39:59.895Z,75.78
2024-02-13T03:42:27.861Z,75.19
2024-02-13T03:44:55.918Z,75.50
2024-02-13T03:47:24.103Z,75.59
2024-02-13T03:49:52.232Z,75.59
2024-02-13T03:52:21.491Z,75.86
2024-02-13T03:54:49.508Z,76.20
2024-02-13T03:57:19.987Z,76.61
2024-02-13T03:59:47.903Z,76.47
2024-02-13T04:02:16.362Z,76.93
2024-02-13T04:04:44.593Z,77.80
2024-02-13T04:07:12.532Z,77.75
2024-02-13T04:09:41.861Z,77.43
2024-02-13T04:12:11.331Z,76.76
2024-02-13T04:14:39.997Z,76.16
2024-02-13T04:17:11.368Z,76.32
2024-02-13T04:19:40.835Z,77.29
2024-02-13T04:22:09.018Z,77.31
2024-02-13T04:24:43.440Z,76.85
2024-02-13T04:27:16.164Z,76.91
2024-02-13T04:29:44.347Z,76.96
2024-02-13T04:32:13.922Z,76.61
2024-02-13T04:34:43.338Z,76.41
2024-02-13T04:37:11.396Z,76.37
2024-02-13T04:39:39.335Z,76.30
2024-02-13T04:42:11.537Z,76.02
2024-02-13T04:44:40.168Z,76.50
2024-02-13T04:47:08.349Z,77.46
2024-02-13T04:49:36.329Z,77.96
2024-02-13T04:52:05.407Z,77.77
2024-02-13T04:54:33.773Z,77.61
2024-02-13T04:57:01.835Z,76.87
2024-02-13T04:59:38.764Z,77.41
2024-02-13T05:02:07.151Z,77.25
2024-02-13T05:04:52.582Z,77.15
2024-02-13T05:07:24.694Z,76.97
2024-02-13T05:09:54.289Z,77.06
2024-02-13T05:12:22.382Z,77.05
2024-02-13T05:15:00.712Z,76.90
2024-02-13T05:17:29.232Z,77.28
2024-02-13T05:24:58.792Z,76.99
2024-02-13T05:27:26.809Z,77.49
2024-02-13T05:30:02.540Z,78.16
2024-02-13T05:32:39.391Z,78.13
2024-02-13T05:35:13.170Z,77.79
2024-02-13T05:37:46.066Z,78.03
2024-02-13T05:40:17.900Z,77.95
2024-02-13T05:42:46.103Z,78.34
2024-02-13T05:45:15.911Z,78.52
2024-02-13T05:47:44.040Z,78.44
2024-02-13T05:50:12.917Z,78.04
2024-02-13T05:52:43.138Z,77.98
2024-02-13T05:55:13.629Z,78.07
2024-02-13T05:57:42.982Z,77.98
2024-02-13T06:00:17.830Z,77.75
2024-02-13T06:02:47.704Z,77.97
2024-02-13T06:05:16.843Z,77.90
2024-02-13T06:07:45.824Z,77.80
2024-02-13T06:10:13.755Z,78.05
2024-02-13T06:12:41.856Z,77.92
2024-02-13T06:15:10.915Z,77.74
2024-02-13T06:17:38.927Z,78.11
2024-02-13T06:20:10.076Z,77.96
2024-02-13T06:22:38.288Z,77.57
2024-02-13T06:25:09.987Z,77.36
2024-02-13T06:27:38.192Z,77.24
2024-02-13T06:30:08.353Z,76.91
2024-02-13T06:32:36.517Z,76.80
2024-02-13T06:35:04.909Z,76.91
2024-02-13T06:37:34.171Z,76.50
2024-02-13T06:40:02.275Z,76.39
2024-02-13T06:42:32.790Z,75.93
2024-02-13T06:45:00.863Z,75.96
2024-02-13T06:47:29.241Z,76.28
2024-02-13T06:49:57.327Z,76.39
2024-02-13T06:52:25.379Z,76.44
2024-02-13T06:54:54.668Z,75.72
2024-02-13T06:57:22.566Z,76.02
2024-02-13T06:59:52.956Z,76.62
2024-02-13T07:02:21.345Z,76.14
2024-02-13T07:04:49.318Z,75.85
2024-02-13T07:07:28.935Z,76.79
2024-02-13T07:10:09.195Z,78.07
2024-02-13T07:12:37.702Z,79.04
2024-02-13T07:15:07.517Z,78.56
2024-02-13T07:17:45.333Z,78.38
2024-02-13T07:20:21.384Z,77.84
2024-02-13T07:22:49.594Z,77.81
2024-02-13T07:25:19.059Z,77.55
2024-02-13T07:27:50.367Z,77.16
2024-02-13T07:30:18.770Z,77.24
2024-02-13T07:32:47.722Z,77.22
2024-02-13T07:35:16.559Z,76.50
2024-02-13T07:37:44.821Z,76.63
2024-02-13T07:40:14.414Z,76.51
2024-02-13T07:42:44.122Z,76.17
2024-02-13T07:45:12.096Z,76.02
2024-02-13T07:47:40.855Z,76.04
2024-02-13T07:50:11.491Z,76.12
2024-02-13T07:53:02.998Z,76.13
2024-02-13T07:55:37.978Z,75.34
2024-02-13T07:58:07.416Z,75.41
2024-02-13T08:00:37.488Z,74.57
2024-02-13T08:03:06.964Z,74.53
2024-02-13T08:05:38.330Z,74.32
2024-02-13T08:08:10.308Z,73.85
2024-02-13T08:10:39.325Z,72.51
2024-02-13T08:13:10.851Z,72.14
2024-02-13T08:15:39.180Z,69.27
2024-02-13T08:18:07.500Z,67.94
2024-02-13T08:20:36.011Z,66.86
2024-02-13T08:23:04.642Z,66.07
2024-02-13T08:25:32.653Z,63.42
2024-02-13T08:28:00.933Z,65.00
2024-02-13T08:30:31.796Z,67.09
2024-02-13T08:32:59.961Z,63.95
2024-02-13T08:35:28.114Z,64.90
2024-02-13T08:37:58.163Z,62.77
2024-02-13T08:40:26.402Z,62.90
2024-02-13T08:42:57.392Z,61.58
2024-02-13T08:45:26.107Z,61.38
2024-02-13T08:47:56.327Z,62.37
2024-02-13T08:50:24.495Z,61.64
2024-02-13T08:52:52.540Z,61.36
2024-02-13T08:55:20.750Z,61.25
2024-02-13T08:57:48.843Z,61.21
2024-02-13T09:00:20.164Z,60.01
2024-02-13T09:02:49.022Z,59.21
2024-02-13T09:05:18.636Z,59.28
2024-02-13T09:07:46.638Z,59.27
2024-02-13T09:10:14.962Z,59.70
2024-02-13T09:12:46.505Z,59.05
2024-02-13T09:15:14.662Z,58.17
2024-02-13T09:17:43.996Z,55.59
2024-02-13T09:20:15.831Z,58.52
2024-02-13T09:22:46.820Z,58.16
2024-02-13T09:25:17.347Z,56.86
2024-02-13T09:27:47.894Z,56.43
2024-02-13T09:30:17.944Z,55.35
2024-02-13T09:32:47.976Z,57.58
2024-02-13T09:35:16.358Z,55.65
2024-02-13T09:37:45.596Z,55.65
2024-02-13T09:40:15.716Z,55.37
2024-02-13T09:42:44.438Z,55.82
2024-02-13T09:45:14.298Z,55.94
2024-02-13T09:47:43.045Z,55.55
2024-02-13T09:50:13.772Z,54.90
2024-02-13T09:52:49.679Z,54.74
2024-02-13T09:55:19.232Z,54.09
2024-02-13T09:57:50.264Z,54.71
2024-02-13T10:00:19.888Z,53.76
2024-02-13T10:02:50.459Z,54.52
2024-02-13T10:05:22.170Z,54.62
2024-02-13T10:07:52.763Z,53.93
2024-02-13T10:10:20.742Z,53.71
2024-02-13T10:12:53.397Z,53.79
2024-02-13T10:15:22.310Z,52.53
2024-02-13T10:17:52.551Z,52.25
2024-02-13T10:20:20.987Z,53.46
2024-02-13T10:22:51.645Z,52.40
2024-02-13T10:25:25.157Z,51.63
2024-02-13T10:27:54.701Z,51.51
2024-02-13T10:30:26.860Z,52.28
2024-02-13T10:32:55.047Z,51.41
2024-02-13T10:35:24.171Z,52.38
2024-02-13T10:37:54.095Z,50.66
2024-02-13T10:40:24.279Z,50.69
2024-02-13T10:42:56.110Z,47.56
2024-02-13T10:45:25.618Z,48.32
2024-02-13T10:47:56.064Z,47.83
2024-02-13T10:50:27.741Z,47.85
2024-02-13T10:52:59.307Z,47.49
2024-02-13T10:55:28.506Z,45.60
2024-02-13T10:57:59.414Z,45.76
2024-02-13T11:00:27.892Z,44.36
2024-02-13T11:02:57.336Z,44.70
2024-02-13T11:05:26.858Z,49.60
2024-02-13T11:07:56.534Z,47.77
2024-02-13T11:10:35.838Z,46.87
2024-02-13T11:13:06.233Z,47.61
2024-02-13T11:15:36.442Z,52.16
2024-02-13T11:18:12.724Z,52.93
2024-02-13T11:20:43.649Z,49.90
2024-02-13T11:23:17.227Z,56.58
2024-02-13T11:25:59.358Z,57.67
2024-02-13T11:28:35.133Z,57.64
2024-02-13T11:31:16.078Z,57.62
2024-02-13T11:34:02.889Z,54.80
2024-02-13T11:36:31.650Z,53.56
2024-02-13T11:39:04.296Z,54.13
2024-02-13T11:41:35.047Z,52.01
2024-02-13T11:44:10.074Z,54.28
2024-02-13T11:46:41.067Z,54.25
2024-02-13T11:49:11.061Z,53.14
2024-02-13T11:51:40.268Z,53.14
2024-02-13T11:54:10.402Z,54.62
2024-02-13T11:56:40.236Z,53.63
2024-02-13T11:59:08.482Z,55.18
2024-02-13T12:01:39.358Z,54.35
2024-02-13T12:04:09.253Z,53.53
2024-02-13T12:06:40.530Z,50.54
2024-02-13T12:09:09.312Z,49.26
2024-02-13T12:11:39.159Z,49.04
2024-02-13T12:14:07.574Z,47.87
2024-02-13T12:16:36.325Z,47.56
2024-02-13T12:19:09.646Z,45.01
2024-02-13T12:21:39.854Z,45.08
2024-02-13T12:24:10.765Z,44.10
2024-02-13T12:26:40.284Z,48.12
2024-02-13T12:29:16.606Z,51.03
2024-02-13T12:31:45.317Z,50.91
2024-02-13T12:34:17.950Z,50.76
2024-02-13T12:36:46.569Z,53.73
2024-02-13T12:39:21.464Z,52.32
2024-02-13T12:41:52.616Z,51.15
2024-02-13T12:44:21.689Z,51.43
2024-02-13T12:46:52.484Z,52.36
2024-02-13T12:49:23.856Z,53.35
2024-02-13T12:51:54.388Z,52.10
2024-02-13T12:54:24.586Z,50.88
2024-02-13T12:56:54.538Z,50.04
2024-02-13T12:59:23.877Z,47.04
2024-02-13T13:01:55.252Z,48.19
2024-02-13T13:04:24.253Z,46.42
2024-02-13T13:06:55.981Z,47.59
2024-02-13T13:09:28.078Z,48.97
2024-02-13T13:11:58.466Z,48.94
2024-02-13T13:14:28.506Z,48.55
2024-02-13T13:16:57.389Z,48.64
2024-02-13T13:19:28.651Z,46.35
2024-02-13T13:21:57.502Z,47.18
2024-02-13T13:24:25.734Z,47.62
2024-02-13T13:26:55.987Z,45.58
2024-02-13T13:29:25.862Z,47.62
2024-02-13T13:31:54.015Z,47.04
2024-02-13T13:34:25.249Z,45.17
2024-02-13T13:36:54.571Z,46.20
2024-02-13T13:39:30.053Z,46.55
2024-02-13T13:42:09.912Z,47.81
2024-02-13T13:44:41.521Z,47.74
2024-02-13T13:47:09.893Z,48.54
2024-02-13T13:49:39.027Z,46.64
2024-02-13T13:52:08.215Z,47.20
2024-02-13T13:54:36.308Z,47.28
2024-02-13T13:57:04.276Z,47.52
2024-02-13T13:59:33.184Z,46.82
2024-02-13T14:02:02.893Z,45.38
2024-02-13T14:04:31.108Z,45.41
2024-02-13T14:07:01.059Z,45.14
2024-02-13T14:09:29.910Z,45.43
2024-02-13T14:12:00.956Z,48.11
2024-02-13T14:14:31.214Z,50.01
2024-02-13T14:17:04.002Z,51.15
2024-02-13T14:19:39.044Z,51.30
2024-02-13T14:22:14.644Z,51.75
2024-02-13T14:24:57.991Z,51.21
2024-02-13T14:30:31.646Z,51.07
2024-02-13T14:33:00.380Z,51.73
2024-02-13T14:35:29.935Z,52.07
2024-02-13T14:37:59.269Z,51.96
2024-02-13T14:40:27.339Z,51.68
2024-02-13T14:42:55.325Z,51.90
2024-02-13T14:45:23.397Z,52.25
2024-02-13T14:47:53.087Z,52.56
2024-02-13T14:50:26.215Z,52.45
2024-02-13T14:52:56.709Z,52.17
2024-02-13T14:55:26.473Z,53.09
2024-02-13T14:58:06.106Z,51.98
2024-02-13T15:00:42.861Z,51.82
2024-02-13T15:03:11.076Z,51.78
2024-02-13T15:05:40.532Z,51.29
2024-02-13T15:08:17.464Z,51.92
2024-02-13T15:10:47.254Z,51.66
2024-02-13T15:13:16.821Z,50.82
2024-02-13T15:15:49.864Z,49.85
2024-02-13T15:18:20.372Z,50.38
2024-02-13T15:20:49.915Z,50.17
2024-02-13T15:23:19.478Z,51.51
2024-02-13T15:25:48.081Z,51.57
2024-02-13T15:28:17.198Z,51.24
2024-02-13T15:30:46.804Z,51.53
2024-02-13T15:33:16.109Z,51.81
2024-02-13T15:35:53.140Z,51.01
2024-02-13T15:38:41.017Z,51.82
2024-02-13T15:41:26.608Z,52.23
2024-02-13T15:44:12.176Z,52.26
2024-02-13T15:46:57.686Z,52.01
2024-02-13T15:49:26.444Z,51.41
2024-02-13T15:51:55.363Z,51.37
2024-02-13T15:54:24.894Z,50.93
2024-02-13T15:56:56.495Z,51.23
2024-02-13T15:59:24.569Z,51.90
2024-02-13T16:01:52.815Z,51.28
2024-02-13T16:04:23.231Z,52.67
2024-02-13T16:06:55.879Z,52.62
2024-02-13T16:09:26.646Z,52.62
2024-02-13T16:11:55.076Z,53.06
2024-02-13T16:14:23.822Z,53.54
2024-02-13T16:16:57.648Z,53.65
2024-02-13T16:19:27.168Z,52.79
2024-02-13T16:22:00.886Z,52.82
2024-02-13T16:24:30.289Z,53.37
2024-02-13T16:26:58.280Z,53.66
2024-02-13T16:29:28.553Z,53.48
2024-02-13T16:31:56.567Z,53.66
2024-02-13T16:34:24.717Z,54.08
2024-02-13T16:36:53.196Z,54.53
2024-02-13T16:39:23.618Z,54.55
2024-02-13T16:41:55.647Z,55.56
2024-02-13T16:44:24.544Z,55.64
2024-02-13T16:46:52.686Z,55.87
2024-02-13T16:49:21.279Z,55.24
2024-02-13T16:51:49.658Z,55.63
2024-02-13T16:54:17.677Z,56.32
2024-02-13T16:56:45.861Z,55.93
2024-02-13T16:59:17.634Z,57.14
2024-02-13T17:01:45.672Z,58.13
2024-02-13T17:04:14.508Z,56.98
2024-02-13T17:06:43.699Z,57.48
2024-02-13T17:09:12.211Z,57.82
2024-02-13T17:11:40.252Z,58.14
2024-02-13T17:14:08.383Z,58.45
2024-02-13T17:16:38.658Z,58.26
2024-02-13T17:19:06.924Z,60.09
2024-02-13T17:21:35.859Z,59.73
2024-02-13T17:24:04.056Z,60.07
2024-02-13T17:26:32.719Z,60.76
2024-02-13T17:29:00.810Z,61.77
2024-02-13T17:31:29.316Z,62.11
2024-02-13T17:33:59.342Z,62.04
2024-02-13T17:36:27.475Z,62.87
2024-02-13T17:38:55.518Z,62.99
2024-02-13T17:41:28.699Z,63.43
2024-02-13T17:44:00.414Z,63.33
2024-02-13T17:46:28.939Z,62.96
2024-02-13T17:48:58.726Z,62.94
2024-02-13T17:51:26.851Z,64.02
2024-02-13T17:53:56.253Z,64.20
2024-02-13T17:56:25.096Z,63.51
2024-02-13T17:58:53.236Z,63.16
2024-02-13T18:01:21.215Z,63.16
2024-02-13T18:03:49.477Z,63.02
2024-02-13T18:06:18.883Z,62.47
2024-02-13T18:08:46.942Z,62.76
2024-02-13T18:11:15.377Z,63.41
2024-02-13T18:13:43.399Z,65.03
2024-02-13T18:16:11.810Z,64.53
2024-02-13T18:18:39.963Z,64.55
2024-02-13T18:21:08.312Z,64.62
2024-02-13T18:23:38.171Z,65.20
2024-02-13T18:26:06.280Z,66.10
2024-02-13T18:28:38.400Z,66.23
2024-02-13T18:31:06.388Z,66.15
2024-02-13T18:33:34.406Z,65.65
2024-02-13T18:36:04.429Z,65.36
2024-02-13T18:38:32.516Z,64.66
2024-02-13T18:41:01.898Z,65.57
2024-02-13T18:43:30.083Z,66.69
2024-02-13T18:45:58.162Z,68.32
2024-02-13T18:48:26.486Z,67.16
2024-02-13T18:50:54.796Z,66.36
2024-02-13T18:53:24.343Z,66.52
2024-02-13T18:55:52.390Z,67.24
2024-02-13T18:58:22.144Z,67.47
2024-02-13T19:00:51.064Z,67.61
2024-02-13T19:03:21.438Z,67.44
2024-02-13T19:05:50.349Z,67.60
2024-02-13T19:08:19.870Z,68.88
2024-02-13T19:10:49.952Z,68.54
2024-02-13T19:13:18.305Z,67.93
2024-02-13T19:15:48.285Z,68.21
2024-02-13T19:18:17.741Z,67.07
2024-02-13T19:20:46.727Z,66.94
2024-02-13T19:23:23.180Z,66.71
2024-02-13T19:25:51.957Z,67.07
2024-02-13T19:28:20.503Z,66.92
2024-02-13T19:30:51.920Z,66.86
2024-02-13T19:33:20.418Z,66.43
2024-02-13T19:35:49.919Z,67.18
2024-02-13T19:38:20.389Z,66.97
2024-02-13T19:40:48.840Z,67.71
2024-02-13T19:43:17.151Z,67.33
2024-02-13T19:45:45.361Z,68.39
2024-02-13T19:48:16.129Z,68.03
2024-02-13T19:50:44.438Z,67.68
2024-02-13T19:53:15.243Z,66.87
2024-02-13T19:55:46.400Z,67.39
2024-02-13T19:58:16.244Z,67.95
2024-02-13T20:00:44.981Z,68.61
2024-02-13T20:03:14.878Z,68.77
2024-02-13T20:05:44.456Z,68.85
2024-02-13T20:08:12.908Z,68.68
2024-02-13T20:10:41.683Z,68.46
2024-02-13T20:13:10.002Z,68.36
2024-02-13T20:15:38.694Z,68.35
2024-02-13T20:18:08.027Z,69.36
2024-02-13T20:20:38.958Z,69.06
2024-02-13T20:23:08.542Z,69.12
2024-02-13T20:25:36.844Z,69.27
2024-02-13T20:28:07.085Z,69.04
2024-02-13T20:30:37.243Z,69.60
2024-02-13T20:33:06.039Z,68.95
2024-02-13T20:35:34.640Z,69.87
2024-02-13T20:38:05.090Z,70.12
2024-02-13T20:40:33.125Z,70.77
2024-02-13T20:43:01.192Z,72.56
2024-02-13T20:45:31.259Z,71.69
2024-02-13T20:47:59.600Z,71.48
2024-02-13T20:50:28.253Z,71.32
2024-02-13T20:52:56.292Z,71.43
2024-02-13T20:55:26.136Z,71.17
2024-02-13T20:57:56.882Z,70.88
2024-02-13T21:00:25.474Z,70.99
2024-02-13T21:02:53.808Z,71.39
2024-02-13T21:05:25.646Z,72.54
2024-02-13T21:07:53.883Z,73.23
2024-02-13T21:10:22.029Z,72.02
2024-02-13T21:12:51.818Z,72.57
2024-02-13T21:15:21.192Z,72.26
2024-02-13T21:17:49.774Z,72.65
2024-02-13T21:20:21.153Z,71.96
2024-02-13T21:23:09.563Z,72.10
2024-02-13T21:25:38.006Z,72.23
2024-02-13T21:28:10.026Z,72.50
2024-02-13T21:30:38.776Z,72.06
2024-02-13T21:33:08.828Z,72.13
2024-02-13T21:35:37.252Z,72.24
2024-02-13T21:38:06.385Z,71.52
2024-02-13T21:40:35.145Z,71.81
2024-02-13T21:43:04.881Z,72.00
2024-02-13T21:45:34.649Z,71.73
2024-02-13T21:48:03.389Z,71.69
2024-02-13T21:50:32.140Z,72.08
2024-02-13T21:53:00.959Z,71.94
2024-02-13T21:55:29.493Z,72.53
2024-02-13T21:57:59.437Z,73.55
2024-02-13T22:00:28.184Z,73.27
2024-02-13T22:02:58.004Z,73.36
2024-02-13T22:05:26.200Z,73.19
2024-02-13T22:07:54.295Z,74.05
2024-02-13T22:10:22.942Z,75.01
2024-02-13T22:12:51.414Z,73.77
2024-02-13T22:15:21.874Z,73.43
2024-02-13T22:17:50.459Z,73.09
2024-02-13T22:20:20.320Z,73.45
2024-02-13T22:22:48.336Z,74.47
2024-02-13T22:25:16.239Z,74.63
2024-02-13T22:27:44.144Z,73.61
2024-02-13T22:30:15.444Z,73.57
2024-02-13T22:32:47.894Z,73.89
2024-02-13T22:35:16.128Z,73.43
2024-02-13T22:37:45.416Z,74.50
2024-02-13T22:40:13.817Z,75.43
2024-02-13T22:42:42.908Z,74.29
2024-02-13T22:45:11.882Z,74.56
2024-02-13T22:47:40.102Z,74.83
2024-02-13T22:50:12.223Z,74.88
2024-02-13T22:52:40.413Z,75.05
2024-02-13T22:55:10.943Z,74.78
2024-02-13T22:57:38.916Z,75.51
2024-02-13T23:00:30.129Z,76.37
2024-02-13T23:02:58.241Z,76.01
2024-02-13T23:05:27.453Z,76.31
2024-02-13T23:07:55.487Z,75.85
2024-02-13T23:10:24.754Z,76.34
2024-02-13T23:12:53.456Z,75.91
2024-02-13T23:15:25.909Z,75.18
2024-02-13T23:17:54.651Z,74.67
2024-02-13T23:20:23.272Z,73.32
2024-02-13T23:22:51.535Z,74.32
2024-02-13T23:25:21.092Z,74.36
2024-02-13T23:27:50.850Z,75.14
2024-02-13T23:30:21.326Z,75.82
2024-02-13T23:32:50.053Z,75.08
2024-02-13T23:35:19.427Z,75.21
2024-02-13T23:37:47.839Z,74.68
2024-02-13T23:40:17.320Z,74.40
2024-02-13T23:42:47.031Z,75.58
2024-02-13T23:45:16.455Z,75.91
2024-02-13T23:47:45.021Z,76.75
2024-02-13T23:50:13.739Z,76.89
2024-02-13T23:52:42.292Z,76.20
2024-02-13T23:55:10.837Z,76.66
2024-02-13T23:57:41.504Z,77.26
